Rocky Dale, Vermont
Current Conditions -  °F | °C
As of 5:55 PM on Saturday 25 Oct 2014 (Local Time) from K6B0 Reporting Station
Overcast Overcast  
Wind Chill: 55°   Ceiling: 5000
Heat Index: 55°   Visibility: 10mi
Dew Point: 47°   Wind: 3mph
Humidity: 76%   Direction: 150°SSE
Pressure: 29.54"   Gusts: NA
Location:  44.1404°N, 73.0493°W
Report Text: K6B0 252155Z AUTO 15003KT 10SM SCT048 BKN050 OVC080 13/08 A2954 RMK AO2 T01260084
Loading
Personal Weather Stations






























Interactive Weather Map
Tropical Storm Tracking
New forecast layout! Learn more

10-Day Weather Forecast

Advertisements
Track Severe Weather on mobile